DTTJ/DJE METAR and TAF weather

Enter ICAO airport designator
Station Type Date Time Source
DTTJ METAR 2019/08/22 03:00 UTC NOAA

DTTJ 220300Z 06005KT CAVOK 26/20 Q1015


Station Type Date Time Source
DTTJ Decoded METAR 2019/08/22 03:00 UTC NOAA

Station name not available
Aug 21, 2019 - 11:00 PM EDT / 2019.08.22 0300 UTC
Wind: from the ENE (060 degrees) at 6 MPH (5 KT):0
Visibility: greater than 7 mile(s):0
Temperature: 78 F (26 C)
Dew Point: 68 F (20 C)
Relative Humidity: 69%
Pressure (altimeter): 29.97 in. Hg (1015 hPa)
ob: DTTJ 220300Z 06005KT CAVOK 26/20 Q1015
cycle: 3

Station Type Date Time Source
DTTJ TAF 2019/08/21 18:54 UTC NOAA

TAF DTTJ 211700Z 2118/2218 06015KT 9999 FEW026 PROB30
TEMPO 2118/2120 09015G25KT

Example: see airport list